Terminal Aerodrome Forecast
Issued by NWS

Home | Current Version | Previous Version | Text Only | Print | Product List | Glossary On
Versions: 1 2 3 4 5 6 7 8 9 10 11 12 13 14 15 16 17 18 19 20
664
FTUS46 KPDT 141416 AAA
TAFBDN
TAF AMD
KBDN 141416Z 1414/1512 22012KT P6SM -SHRA SCT040 OVC070
     FM141900 22013KT P6SM OVC080
     FM142300 22013KT P6SM BKN100 BKN150
     FM150900 24004KT P6SM SCT090=

USA.gov is the U.S. government's official web portal to all federal, state and local government web resources and services.